Time;durP1;ratioP1;P1;durP2;ratioP2;P2;SDS_P1;SDS_P2;PMS_P1;PMS_P2;Temp;Humidity;BMP_temperature;BMP_pressure;BME280_temperature;BME280_humidity;BME280_pressure;Samples;Min_cycle;Max_cycle;Signal;HPM_P1;HPM_P2
2022/02/19 00:02:07;;;;;;;16.52;1.95;;;;;;;5.03;75.87;100136.09;5067478;28;20051;-54
2022/02/19 00:04:35;;;;;;;9.98;1.65;;;;;;;5.08;75.61;100131.47;5072286;28;20381;-54
2022/02/19 00:07:05;;;;;;;15.32;2.10;;;;;;;5.03;75.90;100158.69;5073551;28;20052;-53
2022/02/19 00:09:33;;;;;;;9.32;1.40;;;;;;;5.00;75.60;100145.81;5073617;28;20079;-54
2022/02/19 00:12:01;;;;;;;12.55;1.73;;;;;;;4.97;75.10;100146.81;5073846;28;20056;-56
2022/02/19 00:14:29;;;;;;;10.52;2.00;;;;;;;5.04;75.37;100162.97;5074083;28;20048;-54
2022/02/19 00:16:57;;;;;;;14.52;2.50;;;;;;;5.07;74.62;100152.38;5070691;28;20107;-54
2022/02/19 00:19:25;;;;;;;14.27;1.98;;;;;;;4.99;75.08;100165.84;5070191;28;20067;-55
2022/02/19 00:21:53;;;;;;;11.35;2.03;;;;;;;4.92;75.20;100169.66;5073256;28;20045;-54
2022/02/19 00:24:23;;;;;;;11.27;1.40;;;;;;;4.99;75.22;100180.63;5074204;28;20052;-54
2022/02/19 00:26:51;;;;;;;12.57;1.77;;;;;;;4.99;75.48;100196.25;5073929;28;20377;-55
2022/02/19 00:29:19;;;;;;;10.68;2.15;;;;;;;5.00;75.70;100195.34;5073768;28;20044;-54
2022/02/19 00:31:47;;;;;;;14.40;2.17;;;;;;;4.96;75.93;100202.47;5072509;28;20090;-53
2022/02/19 00:34:15;;;;;;;9.82;1.42;;;;;;;4.95;75.98;100211.22;5071788;28;20051;-54
2022/02/19 00:36:44;;;;;;;10.82;1.85;;;;;;;4.97;76.91;100213.75;5068040;28;20068;-54
2022/02/19 00:39:12;;;;;;;13.35;2.55;;;;;;;4.97;77.22;100203.34;5070546;28;20522;-54
2022/02/19 00:41:41;;;;;;;15.35;1.95;;;;;;;4.94;77.32;100217.34;5073512;28;20411;-53
2022/02/19 00:44:09;;;;;;;13.75;1.83;;;;;;;4.90;77.39;100221.88;5073384;28;20048;-54
2022/02/19 00:46:37;;;;;;;12.55;1.58;;;;;;;4.89;77.63;100228.03;5068332;28;20086;-54
2022/02/19 00:49:05;;;;;;;10.70;1.60;;;;;;;4.87;78.10;100242.88;5069285;28;20040;-53
2022/02/19 00:51:34;;;;;;;14.63;2.00;;;;;;;4.88;78.74;100252.41;5073306;28;20075;-54
2022/02/19 00:54:02;;;;;;;11.38;1.65;;;;;;;4.86;78.89;100243.81;5073043;28;20052;-55
2022/02/19 00:56:30;;;;;;;12.95;1.83;;;;;;;4.82;79.23;100251.88;5073254;28;20044;-54
2022/02/19 00:58:59;;;;;;;10.35;1.92;;;;;;;4.80;79.26;100251.94;5072991;28;20051;-54
2022/02/19 01:01:27;;;;;;;13.77;1.75;;;;;;;4.83;79.78;100264.81;5073256;28;20509;-54
2022/02/19 01:03:55;;;;;;;12.07;1.60;;;;;;;4.79;80.45;100271.09;5073198;28;20040;-53
2022/02/19 01:06:23;;;;;;;13.52;1.80;;;;;;;4.78;80.92;100274.63;5073201;28;20057;-53
2022/02/19 01:08:51;;;;;;;14.88;2.70;;;;;;;4.76;81.83;100283.41;5072988;28;20048;-53
2022/02/19 01:11:20;;;;;;;11.30;1.90;;;;;;;4.77;81.23;100291.16;5072970;28;20048;-54
2022/02/19 01:13:48;;;;;;;16.50;2.35;;;;;;;4.77;81.60;100296.38;5068647;28;20044;-55
2022/02/19 01:16:19;;;;;;;15.68;1.85;;;;;;;4.78;81.88;100290.25;5068212;28;20051;-55
2022/02/19 01:18:47;;;;;;;14.82;2.75;;;;;;;4.81;82.29;100287.47;5072783;28;20185;-54
2022/02/19 01:21:16;;;;;;;13.00;1.90;;;;;;;4.76;82.10;100318.16;5072784;28;20052;-54
2022/02/19 01:23:45;;;;;;;16.05;2.40;;;;;;;4.77;81.91;100322.41;5073179;28;20060;-55
2022/02/19 01:26:13;;;;;;;10.57;1.80;;;;;;;4.77;81.60;100324.19;5072503;28;20044;-55
2022/02/19 01:28:41;;;;;;;14.38;2.35;;;;;;;4.76;82.00;100323.38;5072543;28;20373;-44
2022/02/19 01:31:09;;;;;;;8.02;1.45;;;;;;;4.79;81.20;100328.41;5071029;28;20068;-45
2022/02/19 01:33:39;;;;;;;13.68;2.30;;;;;;;4.75;80.82;100345.13;5068247;28;20521;-45
2022/02/19 01:36:07;;;;;;;14.65;2.53;;;;;;;4.73;80.74;100350.41;5070444;28;20045;-47
2022/02/19 01:38:35;;;;;;;21.15;2.25;;;;;;;4.76;81.08;100366.78;5072074;28;20040;-44
2022/02/19 01:41:04;;;;;;;13.10;1.98;;;;;;;4.79;80.02;100374.47;5072111;28;20056;-47
2022/02/19 01:43:32;;;;;;;8.20;1.50;;;;;;;4.82;79.61;100376.94;5072451;28;20045;-47
2022/02/19 01:46:00;;;;;;;8.32;1.60;;;;;;;4.83;78.86;100387.28;5070154;28;20052;-47
2022/02/19 01:48:28;;;;;;;14.32;1.88;;;;;;;4.78;77.52;100381.44;5068024;28;20048;-45
2022/02/19 01:50:58;;;;;;;10.05;1.42;;;;;;;4.81;77.94;100394.31;5070858;28;20049;-46
2022/02/19 01:53:26;;;;;;;9.68;1.58;;;;;;;4.81;76.55;100403.91;5072657;28;20051;-46
2022/02/19 01:55:57;;;;;;;10.20;1.70;;;;;;;4.78;76.76;100412.69;5071221;28;20732;-43
2022/02/19 01:58:26;;;;;;;10.68;1.55;;;;;;;4.78;76.89;100417.06;5068235;28;20044;-46
2022/02/19 02:00:54;;;;;;;8.93;2.03;;;;;;;4.83;76.41;100425.53;5070204;28;20064;-47
2022/02/19 02:03:22;;;;;;;8.23;1.65;;;;;;;4.79;76.94;100430.03;5072410;28;20052;-44
2022/02/19 02:05:50;;;;;;;10.25;1.58;;;;;;;4.80;76.77;100436.06;5067929;28;20136;-44
2022/02/19 02:08:20;;;;;;;9.90;1.33;;;;;;;4.79;75.71;100450.88;5068500;28;20110;-47
2022/02/19 02:10:49;;;;;;;8.85;1.98;;;;;;;4.77;75.70;100449.25;5072209;28;20059;-47
2022/02/19 02:13:17;;;;;;;6.55;1.30;;;;;;;4.79;74.63;100461.28;5072249;28;20064;-46
2022/02/19 02:15:45;;;;;;;13.13;1.60;;;;;;;4.76;75.42;100458.84;5072079;28;20542;-46
2022/02/19 02:18:13;;;;;;;9.93;1.60;;;;;;;4.77;74.24;100467.50;5072120;28;20110;-43
2022/02/19 02:20:41;;;;;;;9.30;1.42;;;;;;;4.76;75.32;100476.22;5071978;28;20136;-49
2022/02/19 02:23:14;;;;;;;7.47;1.70;;;;;;;4.71;74.32;100479.88;5071974;28;20384;-48
2022/02/19 02:25:43;;;;;;;9.32;1.55;;;;;;;4.78;74.48;100477.84;5070083;28;20098;-44
2022/02/19 02:28:11;;;;;;;10.15;1.98;;;;;;;4.74;73.80;100486.72;5066199;28;20056;-44
2022/02/19 02:30:41;;;;;;;11.93;1.83;;;;;;;4.74;74.25;100491.94;5070699;28;20052;-46
2022/02/19 02:33:10;;;;;;;8.32;1.10;;;;;;;4.74;74.56;100479.75;5071790;28;20106;-44
2022/02/19 02:35:39;;;;;;;8.25;1.70;;;;;;;4.72;74.13;100481.56;5071567;28;20483;-43
2022/02/19 02:38:08;;;;;;;6.63;1.15;;;;;;;4.72;74.63;100493.78;5071881;28;20048;-45
2022/02/19 02:40:38;;;;;;;5.97;1.20;;;;;;;4.73;73.19;100508.47;5071972;28;20123;-44
2022/02/19 02:43:06;;;;;;;8.30;1.50;;;;;;;4.74;73.62;100504.94;5071681;28;20056;-45
2022/02/19 02:45:34;;;;;;;7.43;1.50;;;;;;;4.72;72.78;100507.63;5071934;28;20418;-45
2022/02/19 02:48:21;;;;;;;8.90;1.17;;;;;;;4.74;72.91;100510.16;5072030;28;20063;-44
2022/02/19 02:50:50;;;;;;;8.88;1.77;;;;;;;4.74;73.75;100515.38;5071799;28;20375;-44
2022/02/19 02:53:38;;;;;;;11.65;1.65;;;;;;;4.77;74.52;100517.00;5071889;28;20075;-43
2022/02/19 02:56:07;;;;;;;9.15;2.22;;;;;;;4.78;73.59;100522.13;5067475;28;20065;-45
2022/02/19 02:58:36;;;;;;;8.35;1.40;;;;;;;4.79;73.69;100528.22;5068297;28;20056;-43
2022/02/19 03:01:04;;;;;;;6.40;1.20;;;;;;;4.80;74.78;100538.56;5071740;28;20045;-45
2022/02/19 03:03:32;;;;;;;5.85;1.42;;;;;;;4.77;74.07;100532.63;5071807;28;20060;-53
2022/02/19 03:06:00;;;;;;;14.30;1.67;;;;;;;4.76;73.75;100538.75;5071526;28;20045;-53
2022/02/19 03:08:28;;;;;;;10.85;1.35;;;;;;;4.76;73.96;100543.97;5071509;28;20056;-55
2022/02/19 03:10:56;;;;;;;11.70;1.58;;;;;;;4.79;73.48;100560.31;5072000;28;20055;-46
2022/02/19 03:13:26;;;;;;;8.73;1.60;;;;;;;4.75;73.70;100553.53;5071621;28;20044;-55
2022/02/19 03:15:54;;;;;;;8.35;1.20;;;;;;;4.75;74.04;100571.78;5071516;28;20037;-56
2022/02/19 03:18:22;;;;;;;6.88;1.10;;;;;;;4.75;73.92;100566.56;5073388;28;20056;-44
2022/02/19 03:20:50;;;;;;;11.52;1.48;;;;;;;4.75;73.75;100574.38;5074867;28;20045;-47
2022/02/19 03:23:18;;;;;;;14.65;1.70;;;;;;;4.78;73.97;100584.66;5075133;28;20136;-45
2022/02/19 03:25:46;;;;;;;9.57;1.73;;;;;;;4.75;75.00;100587.41;5074124;28;20475;-55
2022/02/19 03:28:14;;;;;;;6.57;1.35;;;;;;;4.74;75.22;100594.41;5070635;28;20741;-44
2022/02/19 03:30:43;;;;;;;8.77;1.63;;;;;;;4.70;75.62;100592.84;5073287;28;20533;-55
2022/02/19 03:33:11;;;;;;;8.60;1.40;;;;;;;4.73;75.34;100607.47;5075022;28;20198;-53
2022/02/19 03:35:40;;;;;;;10.65;1.52;;;;;;;4.76;75.76;100612.56;5074801;28;20448;-55
2022/02/19 03:38:08;;;;;;;11.35;1.45;;;;;;;4.75;75.81;100613.47;5074705;28;20052;-47
2022/02/19 03:40:36;;;;;;;9.48;2.08;;;;;;;4.73;75.69;100626.56;5074805;28;20055;-56
2022/02/19 03:43:04;;;;;;;8.70;1.70;;;;;;;4.71;75.85;100633.59;5074706;28;20127;-44
2022/02/19 03:45:35;;;;;;;8.18;1.45;;;;;;;4.73;75.94;100646.56;5071326;28;20802;-54
2022/02/19 03:48:05;;;;;;;12.98;1.75;;;;;;;4.68;76.77;100635.50;5069488;28;20041;-55
2022/02/19 03:50:33;;;;;;;6.65;1.30;;;;;;;4.74;76.56;100653.47;5074809;28;20453;-54
2022/02/19 03:53:01;;;;;;;7.10;1.52;;;;;;;4.69;76.29;100647.59;5074673;28;20048;-44
2022/02/19 03:55:30;;;;;;;10.93;1.63;;;;;;;4.69;76.59;100673.66;5071976;28;20433;-45
2022/02/19 03:57:58;;;;;;;8.98;1.60;;;;;;;4.68;77.07;100666.78;5069981;28;20518;-47
2022/02/19 04:00:26;;;;;;;8.60;1.50;;;;;;;4.69;76.95;100673.66;5072939;28;20142;-55
2022/02/19 04:02:54;;;;;;;10.23;1.73;;;;;;;4.67;77.70;100681.53;5073964;28;20094;-55
2022/02/19 04:05:24;;;;;;;13.50;1.80;;;;;;;4.70;76.97;100675.34;5074042;28;20083;-55
2022/02/19 04:07:52;;;;;;;11.73;1.55;;;;;;;4.69;76.96;100692.75;5073717;28;20079;-43
2022/02/19 04:10:20;;;;;;;18.58;2.13;;;;;;;4.71;76.98;100703.94;5073900;28;20519;-43
2022/02/19 04:12:48;;;;;;;8.00;1.90;;;;;;;4.67;76.12;100707.59;5070769;28;20397;-45
2022/02/19 04:15:16;;;;;;;15.05;2.30;;;;;;;4.70;76.12;100704.00;5069317;28;20048;-54
2022/02/19 04:17:44;;;;;;;9.63;1.67;;;;;;;4.65;76.83;100713.78;5073835;28;20434;-44
2022/02/19 04:20:12;;;;;;;11.60;1.50;;;;;;;4.60;76.73;100705.31;5073819;28;20045;-44
2022/02/19 04:22:42;;;;;;;12.88;1.80;;;;;;;4.63;77.01;100715.63;5073719;28;20052;-55
2022/02/19 04:25:10;;;;;;;16.20;1.95;;;;;;;4.66;76.67;100728.50;5073861;28;20040;-55
2022/02/19 04:27:38;;;;;;;13.68;2.05;;;;;;;4.63;76.40;100736.44;5070131;28;20094;-55
2022/02/19 04:30:08;;;;;;;16.80;1.92;;;;;;;4.62;75.68;100737.34;5068910;28;20045;-55
2022/02/19 04:32:36;;;;;;;9.48;1.48;;;;;;;4.59;75.91;100727.06;5073848;28;20476;-55
2022/02/19 04:35:05;;;;;;;10.93;2.00;;;;;;;4.61;75.55;100736.53;5073548;28;20055;-55
2022/02/19 04:37:33;;;;;;;11.70;1.80;;;;;;;4.65;75.11;100758.06;5073018;28;20044;-55
2022/02/19 04:40:05;;;;;;;16.02;1.90;;;;;;;4.67;75.08;100753.66;5073237;28;20051;-52
2022/02/19 04:42:34;;;;;;;15.82;2.20;;;;;;;4.63;74.78;100758.13;5073450;28;20439;-54
2022/02/19 04:45:02;;;;;;;11.07;2.00;;;;;;;4.61;74.78;100766.91;5073449;28;20048;-55
2022/02/19 04:47:30;;;;;;;14.88;1.85;;;;;;;4.63;75.30;100771.16;5073325;28;20049;-54
2022/02/19 04:49:59;;;;;;;15.93;2.03;;;;;;;4.60;74.55;100783.47;5073552;28;20103;-55
2022/02/19 04:52:27;;;;;;;10.00;1.67;;;;;;;4.60;74.81;100784.31;5070380;28;20052;-55
2022/02/19 04:54:55;;;;;;;13.43;1.80;;;;;;;4.59;74.42;100792.19;5068502;28;20087;-56
2022/02/19 04:57:24;;;;;;;9.45;1.98;;;;;;;4.57;75.07;100794.88;5072924;28;20506;-56
2022/02/19 04:59:53;;;;;;;9.18;1.73;;;;;;;4.59;74.39;100808.66;5073233;28;20053;-56
2022/02/19 05:02:21;;;;;;;9.27;1.65;;;;;;;4.64;74.63;100811.94;5073184;28;20445;-53
2022/02/19 05:04:49;;;;;;;11.15;1.88;;;;;;;4.62;74.43;100805.94;5073275;28;20048;-54
2022/02/19 05:07:18;;;;;;;11.75;1.70;;;;;;;4.64;74.89;100806.72;5073208;28;20041;-54
2022/02/19 05:09:46;;;;;;;13.32;1.58;;;;;;;4.69;74.98;100803.91;5069034;28;20530;-56
2022/02/19 05:12:14;;;;;;;16.90;2.10;;;;;;;4.64;74.28;100818.91;5069968;28;20557;-55
2022/02/19 05:14:43;;;;;;;7.70;1.10;;;;;;;4.61;73.93;100813.81;5072991;28;20056;-56
2022/02/19 05:17:12;;;;;;;10.18;1.52;;;;;;;4.60;73.58;100825.16;5072816;28;20048;-53
2022/02/19 05:19:40;;;;;;;12.68;1.55;;;;;;;4.61;74.66;100827.69;5073257;28;20045;-54
2022/02/19 05:22:09;;;;;;;9.55;1.38;;;;;;;4.56;73.95;100825.25;5072691;28;20083;-52
2022/02/19 05:24:37;;;;;;;13.18;1.77;;;;;;;4.65;74.24;100838.81;5072937;28;20052;-54
2022/02/19 05:27:05;;;;;;;8.88;1.73;;;;;;;4.60;74.15;100840.78;5072769;28;20067;-56
2022/02/19 05:29:33;;;;;;;11.45;1.65;;;;;;;4.59;74.61;100839.09;5072759;28;20044;-54
2022/02/19 05:32:02;;;;;;;7.85;1.90;;;;;;;4.56;74.38;100842.66;5072649;28;20051;-53
2022/02/19 05:34:30;;;;;;;11.43;1.55;;;;;;;4.59;74.26;100847.72;5072487;28;20388;-55
2022/02/19 05:36:58;;;;;;;10.13;2.05;;;;;;;4.54;75.19;100858.34;5068910;28;20494;-56
2022/02/19 05:39:26;;;;;;;13.95;1.38;;;;;;;4.46;75.44;100850.00;5070016;28;20102;-55
2022/02/19 05:41:54;;;;;;;9.20;1.40;;;;;;;4.42;75.20;100865.78;5071600;28;20506;-53
2022/02/19 05:44:22;;;;;;;6.47;1.38;;;;;;;4.35;75.73;100866.03;5069960;28;20071;-55
2022/02/19 05:46:50;;;;;;;12.40;1.75;;;;;;;4.27;76.09;100873.31;5066626;28;20068;-57
2022/02/19 05:49:20;;;;;;;10.45;1.60;;;;;;;4.31;76.55;100869.66;5072477;28;20060;-55
2022/02/19 05:51:48;;;;;;;9.95;1.48;;;;;;;4.26;76.73;100875.97;5072283;28;20037;-55
2022/02/19 05:54:16;;;;;;;9.85;1.73;;;;;;;4.22;77.26;100886.47;5072456;28;20047;-52
2022/02/19 05:56:45;;;;;;;10.73;1.52;;;;;;;4.23;77.41;100889.94;5072448;28;20098;-53
2022/02/19 05:59:13;;;;;;;10.77;1.45;;;;;;;4.23;77.57;100901.19;5069047;28;20060;-54
2022/02/19 06:01:41;;;;;;;10.20;1.67;;;;;;;4.25;77.48;100893.31;5067139;28;20062;-54
2022/02/19 06:04:09;;;;;;;13.40;1.65;;;;;;;4.30;76.57;100912.22;5072219;28;20044;-55
2022/02/19 06:06:38;;;;;;;10.30;1.80;;;;;;;4.30;76.42;100893.16;5072288;28;20040;-47
2022/02/19 06:09:06;;;;;;;8.07;2.03;;;;;;;4.30;76.20;100896.59;5069809;28;20105;-54
2022/02/19 06:11:35;;;;;;;9.77;1.52;;;;;;;4.34;76.24;100897.34;5068663;28;20036;-53
2022/02/19 06:14:03;;;;;;;10.70;1.20;;;;;;;4.40;75.50;100907.50;5071385;28;20124;-43
2022/02/19 06:16:31;;;;;;;13.35;1.70;;;;;;;4.37;76.39;100899.81;5072269;28;20052;-54
2022/02/19 06:18:59;;;;;;;11.15;1.80;;;;;;;4.35;77.17;100899.88;5072049;28;20532;-53
2022/02/19 06:21:27;;;;;;;9.40;1.80;;;;;;;4.37;76.85;100923.25;5071979;28;20064;-46
2022/02/19 06:23:56;;;;;;;7.82;1.77;;;;;;;4.35;76.94;100930.28;5072253;28;20510;-55
2022/02/19 06:26:24;;;;;;;8.55;1.60;;;;;;;4.42;76.24;100917.88;5068886;28;20067;-54
2022/02/19 06:28:52;;;;;;;10.30;1.60;;;;;;;4.43;76.55;100932.59;5069269;28;20466;-54
2022/02/19 06:31:20;;;;;;;11.23;2.20;;;;;;;4.39;76.79;100932.72;5071987;28;20127;-47
2022/02/19 06:33:48;;;;;;;7.72;1.70;;;;;;;4.46;76.58;100937.69;5072063;28;20075;-53
2022/02/19 06:36:16;;;;;;;8.57;1.83;;;;;;;4.41;76.79;100945.69;5071857;28;20052;-55
2022/02/19 06:38:46;;;;;;;10.90;1.83;;;;;;;4.28;81.06;100947.91;5071860;28;20044;-53
2022/02/19 06:41:16;;;;;;;9.15;1.40;;;;;;;4.15;83.66;100964.88;5071584;28;20045;-50
2022/02/19 06:43:44;;;;;;;14.60;1.95;;;;;;;4.15;84.57;100965.72;5068487;28;20088;-54
2022/02/19 06:46:12;;;;;;;12.50;1.67;;;;;;;4.13;83.03;100966.66;5068316;28;20123;-51
2022/02/19 06:48:40;;;;;;;10.43;1.38;;;;;;;4.14;82.82;100974.41;5071897;28;20111;-54
2022/02/19 06:51:08;;;;;;;12.68;1.92;;;;;;;4.22;82.48;100964.56;5071936;28;20043;-54
2022/02/19 06:53:37;;;;;;;14.95;1.90;;;;;;;4.26;83.29;100982.72;5074380;28;20064;-47
2022/02/19 06:56:05;;;;;;;14.55;1.98;;;;;;;4.16;83.35;101003.88;5074996;28;20127;-56
2022/02/19 06:58:35;;;;;;;8.65;1.60;;;;;;;4.23;81.47;100988.88;5072130;28;20045;-54
2022/02/19 07:01:03;;;;;;;9.68;1.77;;;;;;;4.23;82.12;100992.31;5072722;28;20041;-47
2022/02/19 07:03:32;;;;;;;11.43;1.73;;;;;;;4.27;80.57;101000.00;5075537;28;20550;-56
2022/02/19 07:06:00;;;;;;;8.32;1.60;;;;;;;4.25;81.23;101015.69;5075495;28;20071;-45
2022/02/19 07:08:28;;;;;;;11.77;1.60;;;;;;;4.26;81.22;101019.16;5075047;28;20098;-55
2022/02/19 07:10:56;;;;;;;15.68;2.13;;;;;;;4.27;82.33;101013.03;5071568;28;20044;-56
2022/02/19 07:13:24;;;;;;;9.13;1.58;;;;;;;4.24;82.22;101021.81;5072378;28;20062;-58
2022/02/19 07:15:53;;;;;;;11.23;1.83;;;;;;;4.26;82.55;101029.59;5075226;28;20492;-45
2022/02/19 07:18:22;;;;;;;8.07;1.48;;;;;;;4.32;82.25;101037.16;5075297;28;20039;-55
2022/02/19 07:20:51;;;;;;;9.85;1.90;;;;;;;4.27;82.18;101036.47;5071615;28;20098;-54
2022/02/19 07:23:19;;;;;;;14.70;1.50;;;;;;;4.27;82.55;101039.94;5071623;28;20044;-45
2022/02/19 07:25:50;;;;;;;14.73;1.85;;;;;;;4.33;82.41;101050.13;5075229;28;20056;-50
2022/02/19 07:28:18;;;;;;;13.88;2.42;;;;;;;4.38;81.98;101055.19;5075021;28;20048;-54
2022/02/19 07:30:46;;;;;;;13.13;1.63;;;;;;;4.33;82.97;101054.50;5075369;28;20048;-53
2022/02/19 07:33:16;;;;;;;11.38;1.67;;;;;;;4.28;82.86;101054.66;5074660;28;20040;-54
2022/02/19 07:35:44;;;;;;;9.40;2.10;;;;;;;4.41;82.59;101060.28;5074828;28;20063;-56
2022/02/19 07:38:12;;;;;;;13.10;1.98;;;;;;;4.38;82.34;101061.22;5073448;28;20125;-47
2022/02/19 07:40:41;;;;;;;11.68;1.80;;;;;;;4.37;82.80;101069.94;5071189;28;20048;-43
2022/02/19 07:43:09;;;;;;;13.45;1.90;;;;;;;4.37;82.19;101075.13;5072650;28;20053;-55
2022/02/19 07:45:37;;;;;;;12.77;2.53;;;;;;;4.38;82.98;101083.81;5074731;28;20047;-46
2022/02/19 07:48:05;;;;;;;7.97;1.83;;;;;;;4.42;81.93;101090.63;5074724;28;20045;-47
2022/02/19 07:58:51;;;;;;;11.15;2.55;;;;;;;4.51;82.52;101110.28;5074306;28;20051;-55
2022/02/19 08:01:19;;;;;;;9.95;1.88;;;;;;;4.52;82.21;101110.22;5074570;28;20113;-50
2022/02/19 08:03:47;;;;;;;11.63;1.67;;;;;;;4.57;81.92;101123.09;5073687;28;20135;-43
2022/02/19 08:06:17;;;;;;;10.00;1.42;;;;;;;4.54;82.16;101124.03;5074357;28;20604;-55
2022/02/19 08:08:45;;;;;;;8.50;1.75;;;;;;;4.54;81.91;101123.19;5074100;28;20418;-55
2022/02/19 08:11:13;;;;;;;10.05;1.30;;;;;;;4.59;81.81;101131.69;5074116;28;20129;-45
2022/02/19 08:13:42;;;;;;;13.90;2.17;;;;;;;4.54;81.11;101134.47;5074008;28;20041;-56
2022/02/19 08:16:11;;;;;;;9.27;1.52;;;;;;;4.59;82.02;101130.84;5071321;28;20689;-55
2022/02/19 08:18:39;;;;;;;9.30;2.00;;;;;;;4.60;81.83;101145.59;5070429;28;20094;-47
2022/02/19 08:21:07;;;;;;;12.40;1.77;;;;;;;4.64;80.89;101140.19;5072943;28;20094;-46
2022/02/19 08:23:36;;;;;;;19.10;2.83;;;;;;;4.65;81.70;101144.50;5074092;28;20392;-56
2022/02/19 08:26:05;;;;;;;7.47;1.40;;;;;;;4.67;81.87;101152.28;5072554;28;20437;-55
2022/02/19 08:28:33;;;;;;;8.73;1.45;;;;;;;4.67;83.21;101154.88;5070617;28;20498;-45
2022/02/19 08:31:01;;;;;;;18.25;2.35;;;;;;;4.67;82.70;101157.47;5072460;28;20055;-55
2022/02/19 08:33:29;;;;;;;15.73;1.98;;;;;;;4.76;82.46;101153.69;5073895;28;20052;-45
2022/02/19 08:35:58;;;;;;;11.85;2.10;;;;;;;4.71;83.26;101153.84;5073020;28;20045;-48
2022/02/19 08:38:26;;;;;;;9.55;1.73;;;;;;;4.73;82.35;101154.63;5070411;28;20521;-56
2022/02/19 08:40:56;;;;;;;7.95;1.30;;;;;;;4.76;81.56;101156.28;5070871;28;20483;-56
2022/02/19 08:43:24;;;;;;;7.75;1.23;;;;;;;4.73;81.49;101167.66;5073408;28;20064;-51
2022/02/19 08:45:52;;;;;;;9.43;1.33;;;;;;;4.78;81.67;101162.31;5069805;28;20044;-56
2022/02/19 08:48:20;;;;;;;11.68;1.70;;;;;;;4.79;81.88;101166.63;5069293;28;20127;-44
2022/02/19 08:50:48;;;;;;;12.32;2.08;;;;;;;4.85;80.72;101167.25;5073718;28;20052;-47
2022/02/19 08:53:21;;;;;;;5.80;1.70;;;;;;;4.85;81.70;101169.00;5073160;28;20457;-43
2022/02/19 08:55:50;;;;;;;16.48;1.92;;;;;;;4.90;80.80;101170.53;5073552;28;20543;-47
2022/02/19 08:58:19;;;;;;;10.13;1.70;;;;;;;4.90;80.21;101173.13;5073188;28;20092;-42
2022/02/19 09:00:47;;;;;;;16.17;2.58;;;;;;;4.97;80.23;101181.59;5073300;28;20045;-42
2022/02/19 09:03:15;;;;;;;12.73;1.50;;;;;;;5.01;80.67;101182.34;5073055;28;20495;-43
2022/02/19 09:05:44;;;;;;;11.82;1.52;;;;;;;5.14;80.39;101190.53;5073397;28;20072;-45
2022/02/19 09:08:12;;;;;;;13.93;1.50;;;;;;;5.16;79.50;101184.38;5073169;28;20514;-58
2022/02/19 09:10:41;;;;;;;12.02;1.77;;;;;;;5.23;79.91;101185.00;5073233;28;20119;-44
2022/02/19 09:13:09;;;;;;;11.02;1.88;;;;;;;5.63;79.31;101188.72;5072790;28;20040;-55
2022/02/19 09:15:39;;;;;;;7.68;1.50;;;;;;;5.83;79.32;101185.28;5072789;28;20490;-45
2022/02/19 09:18:07;;;;;;;9.82;1.60;;;;;;;5.98;79.17;101188.25;5072968;28;20051;-56
2022/02/19 09:20:36;;;;;;;13.07;2.60;;;;;;;6.02;78.03;101180.22;5072773;28;20056;-56
2022/02/19 09:23:04;;;;;;;9.73;1.60;;;;;;;6.12;78.39;101180.69;5072837;28;20076;-47
2022/02/19 09:25:33;;;;;;;21.25;3.10;;;;;;;6.26;76.18;101182.75;5072539;28;20055;-54
2022/02/19 09:28:01;;;;;;;10.35;1.80;;;;;;;6.66;75.14;101178.44;5072690;28;20044;-54
2022/02/19 09:30:29;;;;;;;12.73;1.77;;;;;;;6.81;75.45;101179.53;5070692;28;20059;-55
2022/02/19 09:33:01;;;;;;;13.40;3.10;;;;;;;6.66;73.98;101183.66;5068155;28;20045;-54
2022/02/19 09:35:29;;;;;;;9.88;1.50;;;;;;;6.47;73.96;101195.81;5070937;28;20507;-55
2022/02/19 09:37:57;;;;;;;13.73;2.00;;;;;;;6.54;74.58;101187.63;5070029;28;20048;-45
2022/02/19 09:40:26;;;;;;;10.60;1.65;;;;;;;6.79;73.47;101189.22;5068801;28;20052;-56
2022/02/19 09:42:54;;;;;;;12.02;2.08;;;;;;;6.70;73.42;101197.44;5072449;28;20059;-47
2022/02/19 09:45:28;;;;;;;9.60;1.27;;;;;;;6.83;73.44;101192.53;5072171;28;20174;-56
2022/02/19 09:47:59;;;;;;;10.73;1.83;;;;;;;6.75;72.88;101198.09;5070001;28;20052;-55
2022/02/19 09:50:28;;;;;;;15.45;2.03;;;;;;;6.60;72.48;101200.44;5068665;28;20044;-56
2022/02/19 09:52:56;;;;;;;14.38;2.13;;;;;;;6.62;72.82;101204.78;5071269;28;20044;-43
2022/02/19 09:55:24;;;;;;;8.15;1.55;;;;;;;6.50;73.22;101195.69;5072403;28;20115;-43
2022/02/19 09:57:52;;;;;;;5.78;1.73;;;;;;;6.52;74.33;101199.09;5072267;28;20048;-46
2022/02/19 10:00:29;;;;;;;13.10;1.45;;;;;;;6.48;74.76;101197.53;5069402;28;20040;-55
2022/02/19 10:02:57;;;;;;;10.10;1.63;;;;;;;6.52;75.04;101210.38;5066078;28;20122;-54
2022/02/19 10:05:31;;;;;;;9.32;1.65;;;;;;;6.53;73.66;101212.09;5071589;28;20044;-55
2022/02/19 10:08:04;;;;;;;8.13;1.83;;;;;;;6.70;71.92;101218.34;5072533;28;20044;-55
2022/02/19 10:10:34;;;;;;;7.05;1.98;;;;;;;6.71;71.81;101214.84;5070519;28;20127;-56
2022/02/19 10:13:09;;;;;;;10.13;1.77;;;;;;;6.80;72.43;101218.81;5068057;28;20044;-55
2022/02/19 10:15:46;;;;;;;12.50;2.13;;;;;;;6.86;70.55;101219.41;5070735;28;20503;-47
2022/02/19 10:18:25;;;;;;;6.72;1.40;;;;;;;6.91;69.64;101222.66;5070950;28;20142;-56
2022/02/19 10:21:09;;;;;;;14.88;1.83;;;;;;;6.86;70.91;101224.63;5072077;28;20056;-56
2022/02/19 10:23:39;;;;;;;7.28;1.55;;;;;;;6.89;71.72;101214.03;5069995;28;20053;-46
2022/02/19 10:26:08;;;;;;;9.10;1.67;;;;;;;7.00;69.78;101204.88;5067908;28;20112;-50
2022/02/19 10:28:37;;;;;;;11.63;1.73;;;;;;;7.32;70.43;101210.41;5074479;28;20125;-55
2022/02/19 10:31:15;;;;;;;13.15;1.95;;;;;;;7.77;69.19;101228.38;5076131;28;20383;-55
2022/02/19 10:33:44;;;;;;;8.93;1.48;;;;;;;7.86;68.85;101210.53;5074882;28;20098;-45
2022/02/19 10:36:19;;;;;;;9.30;1.60;;;;;;;8.31;68.71;101213.59;5072298;28;20528;-46
2022/02/19 10:38:56;;;;;;;10.93;1.70;;;;;;;8.31;67.48;101218.84;5074747;28;20380;-56
2022/02/19 10:41:35;;;;;;;12.35;1.75;;;;;;;8.56;66.57;101221.97;5070961;28;20415;-57
2022/02/19 10:44:25;;;;;;;13.40;2.13;;;;;;;8.49;67.07;101219.72;5073442;28;20052;-55
2022/02/19 10:46:55;;;;;;;8.30;1.48;;;;;;;8.23;67.43;101230.53;5075995;28;20458;-47
2022/02/19 10:49:24;;;;;;;14.50;1.88;;;;;;;8.74;66.49;101235.03;5075875;28;20067;-45
2022/02/19 10:51:54;;;;;;;9.02;1.52;;;;;;;9.04;65.04;101227.38;5075711;28;20147;-54
2022/02/19 10:54:23;;;;;;;10.15;1.75;;;;;;;9.05;63.37;101222.97;5075493;28;20060;-53
2022/02/19 10:56:52;;;;;;;9.93;1.73;;;;;;;9.21;62.96;101231.72;5075724;28;20487;-56
2022/02/19 10:59:30;;;;;;;10.73;1.27;;;;;;;9.53;61.40;101229.16;5075196;28;20044;-56
2022/02/19 11:01:58;;;;;;;8.43;1.30;;;;;;;9.85;61.77;101238.81;5108231;28;20095;-56
2022/02/19 11:04:27;;;;;;;8.48;1.50;;;;;;;10.04;59.98;101249.97;5075146;28;20052;-55
2022/02/19 11:06:57;;;;;;;9.23;1.65;;;;;;;10.13;61.01;101243.38;5075249;28;20074;-53
2022/02/19 11:09:26;;;;;;;8.95;1.90;;;;;;;9.95;60.38;101242.59;5075462;28;20376;-56
2022/02/19 11:11:57;;;;;;;7.20;1.50;;;;;;;9.48;61.52;101249.56;5075353;28;20124;-54
2022/02/19 11:14:27;;;;;;;6.55;1.30;;;;;;;9.96;60.02;101260.91;5075207;28;20068;-55
2022/02/19 11:16:57;;;;;;;8.63;1.35;;;;;;;9.97;59.20;101259.97;5075277;28;20048;-56
2022/02/19 11:19:25;;;;;;;7.38;1.90;;;;;;;10.13;60.17;101248.63;5075204;28;20052;-55
2022/02/19 11:21:58;;;;;;;8.07;1.90;;;;;;;9.67;60.19;101238.03;5075137;28;20049;-58
2022/02/19 11:24:29;;;;;;;10.15;1.67;;;;;;;9.76;60.35;101229.66;5075406;28;20072;-55
2022/02/19 11:27:01;;;;;;;12.35;2.13;;;;;;;9.90;59.25;101229.72;5074783;28;20670;-58
2022/02/19 11:29:31;;;;;;;7.75;1.50;;;;;;;10.14;58.01;101234.53;5074928;28;20060;-57
2022/02/19 11:32:02;;;;;;;11.55;1.85;;;;;;;10.74;57.92;101231.06;5075096;28;20094;-53
2022/02/19 11:34:30;;;;;;;11.07;1.85;;;;;;;10.81;55.62;101240.31;5069880;28;20045;-56
2022/02/19 11:37:16;;;;;;;8.07;1.58;;;;;;;10.97;55.99;101228.84;5056829;28;20139;-56
2022/02/19 11:40:05;;;;;;;10.95;1.58;;;;;;;11.11;54.77;101233.25;5068916;28;20518;-56
2022/02/19 11:42:49;;;;;;;6.90;1.10;;;;;;;11.10;53.60;101224.53;5069820;28;20048;-55
2022/02/19 11:45:25;;;;;;;7.68;1.20;;;;;;;10.49;55.02;101218.53;5064501;28;20110;-57
2022/02/19 11:47:56;;;;;;;8.00;1.50;;;;;;;10.34;55.80;101219.41;5059026;28;20048;-55